createdAt,value
2023-03-15T00:01:11.380Z,0.73
2023-03-15T00:03:39.867Z,0.95
2023-03-15T00:06:07.899Z,0.85
2023-03-15T00:08:35.570Z,0.80
2023-03-15T00:11:04.894Z,1.10
2023-03-15T00:13:32.845Z,0.93
2023-03-15T00:16:00.967Z,0.45
2023-03-15T00:18:28.806Z,0.77
2023-03-15T00:20:56.480Z,0.70
2023-03-15T00:23:24.113Z,0.70
2023-03-15T00:25:52.957Z,0.77
2023-03-15T00:28:22.222Z,0.65
2023-03-15T00:31:03.298Z,0.70
2023-03-15T00:33:34.633Z,0.80
2023-03-15T00:36:03.695Z,0.63
2023-03-15T00:38:33.771Z,0.63
2023-03-15T00:41:05.000Z,0.60
2023-03-15T00:43:33.948Z,0.90
2023-03-15T00:46:01.940Z,0.65
2023-03-15T00:48:30.095Z,0.70
2023-03-15T00:51:05.408Z,0.75
2023-03-15T00:53:33.023Z,0.68
2023-03-15T00:56:04.765Z,0.73
2023-03-15T00:58:32.340Z,0.63
2023-03-15T01:01:01.559Z,0.43
2023-03-15T01:03:29.326Z,0.50
2023-03-15T01:05:56.888Z,0.73
2023-03-15T01:08:25.352Z,0.32
2023-03-15T01:10:53.642Z,0.60
2023-03-15T01:13:22.710Z,0.60
2023-03-15T01:15:50.335Z,0.85
2023-03-15T01:18:19.313Z,0.38
2023-03-15T01:20:46.895Z,0.70
2023-03-15T01:23:14.455Z,0.70
2023-03-15T01:25:42.003Z,0.55
2023-03-15T01:28:09.610Z,0.50
2023-03-15T01:30:37.340Z,0.45
2023-03-15T01:33:04.991Z,0.75
2023-03-15T01:35:34.000Z,0.73
2023-03-15T01:38:01.643Z,0.50
2023-03-15T01:40:31.498Z,0.75
2023-03-15T01:43:14.711Z,0.40
2023-03-15T01:45:55.940Z,0.75
2023-03-15T01:48:25.927Z,0.50
2023-03-15T01:50:55.776Z,0.65
2023-03-15T01:53:23.788Z,0.95
2023-03-15T01:55:53.106Z,0.70
2023-03-15T01:58:26.995Z,0.52
2023-03-15T02:00:56.027Z,0.82
2023-03-15T02:03:26.872Z,0.70
2023-03-15T02:05:58.098Z,0.77
2023-03-15T02:08:38.244Z,0.50
2023-03-15T02:11:06.611Z,0.73
2023-03-15T02:13:35.477Z,0.85
2023-03-15T02:16:08.169Z,0.70
2023-03-15T02:18:43.163Z,0.63
2023-03-15T02:21:15.905Z,0.50
2023-03-15T02:23:45.156Z,0.60
2023-03-15T02:26:17.675Z,0.70
2023-03-15T02:28:47.450Z,0.63
2023-03-15T02:31:15.592Z,0.52
2023-03-15T02:33:44.682Z,0.50
2023-03-15T02:36:16.232Z,0.70
2023-03-15T02:38:43.848Z,0.68
2023-03-15T02:41:12.798Z,0.45
2023-03-15T02:43:40.871Z,0.40
2023-03-15T02:46:11.038Z,0.47
2023-03-15T02:48:39.558Z,0.75
2023-03-15T02:51:07.365Z,0.50
2023-03-15T02:53:36.275Z,0.95
2023-03-15T02:56:03.877Z,0.70
2023-03-15T02:58:32.291Z,0.68
2023-03-15T03:01:02.265Z,0.50
2023-03-15T03:03:31.668Z,0.75
2023-03-15T03:06:01.767Z,0.50
2023-03-15T03:08:29.362Z,0.55
2023-03-15T03:10:56.986Z,0.60
2023-03-15T03:13:24.702Z,0.85
2023-03-15T03:15:58.471Z,0.80
2023-03-15T03:18:29.203Z,0.52
2023-03-15T03:20:58.724Z,0.85
2023-03-15T03:23:26.711Z,0.52
2023-03-15T03:25:54.894Z,0.80
2023-03-15T03:28:24.127Z,1.23
2023-03-15T03:30:52.481Z,1.17
2023-03-15T03:33:20.175Z,0.57
2023-03-15T03:35:48.951Z,0.88
2023-03-15T03:38:18.263Z,0.68
2023-03-15T03:40:51.345Z,0.57
2023-03-15T03:43:18.946Z,0.77
2023-03-15T03:45:47.422Z,0.65
2023-03-15T03:48:16.361Z,0.65
2023-03-15T03:50:44.375Z,0.75
2023-03-15T03:53:12.064Z,1.10
2023-03-15T03:55:42.660Z,0.80
2023-03-15T03:58:10.411Z,0.80
2023-03-15T04:00:54.272Z,0.80
2023-03-15T04:03:27.014Z,0.90
2023-03-15T04:06:00.022Z,1.05
2023-03-15T04:08:29.551Z,0.93
2023-03-15T04:10:58.758Z,0.75
2023-03-15T04:13:29.490Z,0.73
2023-03-15T04:16:01.367Z,0.77
2023-03-15T04:18:32.794Z,0.60
2023-03-15T04:21:00.506Z,0.70
2023-03-15T04:23:29.098Z,0.70
2023-03-15T04:26:20.075Z,0.60
2023-03-15T04:29:21.522Z,0.65
2023-03-15T04:32:08.146Z,0.70
2023-03-15T04:34:51.273Z,0.82
2023-03-15T04:37:42.506Z,0.70
2023-03-15T04:40:24.173Z,1.08
2023-03-15T04:43:03.123Z,0.93
2023-03-15T04:45:39.591Z,0.70
2023-03-15T04:48:36.784Z,0.90
2023-03-15T04:51:10.240Z,0.85
2023-03-15T04:53:58.089Z,0.73
2023-03-15T04:56:46.215Z,0.60
2023-03-15T04:59:41.308Z,0.50
2023-03-15T05:02:20.747Z,0.52
2023-03-15T05:05:15.208Z,0.93
2023-03-15T05:08:08.900Z,0.70
2023-03-15T05:10:58.298Z,0.50
2023-03-15T05:13:31.910Z,0.52
2023-03-15T05:16:21.138Z,0.93
2023-03-15T05:19:00.948Z,0.80
2023-03-15T05:22:00.963Z,0.43
2023-03-15T05:24:44.519Z,0.57
2023-03-15T05:27:28.307Z,0.68
2023-03-15T05:30:16.637Z,0.93
2023-03-15T05:33:05.015Z,0.68
2023-03-15T05:35:41.469Z,0.80
2023-03-15T05:38:27.606Z,0.85
2023-03-15T05:41:07.554Z,1.00
2023-03-15T05:43:41.972Z,0.52
2023-03-15T05:46:12.203Z,0.98
2023-03-15T05:48:56.417Z,0.95
2023-03-15T05:51:35.318Z,0.80
2023-03-15T05:54:21.630Z,0.73
2023-03-15T05:57:07.655Z,0.80
2023-03-15T05:59:55.450Z,0.82
2023-03-15T06:02:41.246Z,0.40
2023-03-15T06:05:32.952Z,1.00
2023-03-15T06:08:03.948Z,0.82
2023-03-15T06:10:33.755Z,0.90
2023-03-15T06:13:06.998Z,0.43
2023-03-15T06:15:34.627Z,0.60
2023-03-15T06:18:02.563Z,0.63
2023-03-15T06:20:31.896Z,0.38
2023-03-15T06:23:06.460Z,0.70
2023-03-15T06:25:43.462Z,0.70
2023-03-15T06:28:11.324Z,0.57
2023-03-15T06:30:43.398Z,0.80
2023-03-15T06:33:11.764Z,0.65
2023-03-15T06:35:39.383Z,0.40
2023-03-15T06:38:09.889Z,0.65
2023-03-15T06:40:38.723Z,0.60
2023-03-15T06:43:06.719Z,0.75
2023-03-15T06:45:35.945Z,0.70
2023-03-15T06:48:05.198Z,0.68
2023-03-15T06:50:46.107Z,0.52
2023-03-15T06:53:16.718Z,0.82
2023-03-15T06:55:44.432Z,1.48
2023-03-15T06:58:12.381Z,0.85
2023-03-15T07:00:39.995Z,1.23
2023-03-15T07:03:07.649Z,1.13
2023-03-15T07:05:35.227Z,0.60
2023-03-15T07:08:02.839Z,0.70
2023-03-15T07:10:31.786Z,0.70
2023-03-15T07:12:59.633Z,1.42
2023-03-15T07:15:27.245Z,0.90
2023-03-15T07:17:54.855Z,0.68
2023-03-15T07:20:22.446Z,0.70
2023-03-15T07:22:50.102Z,1.02
2023-03-15T07:25:23.732Z,0.82
2023-03-15T07:27:53.017Z,1.10
2023-03-15T07:30:21.409Z,0.82
2023-03-15T07:32:49.127Z,0.88
2023-03-15T07:35:18.137Z,0.85
2023-03-15T07:37:45.972Z,1.20
2023-03-15T07:40:14.116Z,1.02
2023-03-15T07:42:41.729Z,0.68
2023-03-15T07:45:11.249Z,0.88
2023-03-15T07:47:38.820Z,0.85
2023-03-15T07:50:07.808Z,0.70
2023-03-15T07:52:35.407Z,0.82
2023-03-15T07:55:04.780Z,0.50
2023-03-15T07:57:32.386Z,0.60
2023-03-15T07:59:59.950Z,0.70
2023-03-15T08:02:30.647Z,1.52
2023-03-15T08:04:58.704Z,1.17
2023-03-15T08:07:26.451Z,1.50
2023-03-15T08:09:54.000Z,1.05
2023-03-15T08:12:21.572Z,1.48
2023-03-15T08:14:49.884Z,1.60
2023-03-15T08:17:17.525Z,1.60
2023-03-15T08:19:46.448Z,1.45
2023-03-15T08:22:14.099Z,1.70
2023-03-15T08:24:41.686Z,1.13
2023-03-15T08:27:09.362Z,1.25
2023-03-15T08:29:37.263Z,1.17
2023-03-15T08:32:05.055Z,1.52
2023-03-15T08:34:34.709Z,1.30
2023-03-15T08:37:03.654Z,1.30
2023-03-15T08:39:31.214Z,1.40
2023-03-15T08:41:58.774Z,0.95
2023-03-15T08:44:26.333Z,1.20
2023-03-15T08:46:53.985Z,1.20
2023-03-15T08:49:21.615Z,1.38
2023-03-15T08:51:49.206Z,1.40
2023-03-15T08:54:18.208Z,1.42
2023-03-15T08:56:45.781Z,0.90
2023-03-15T08:59:19.457Z,1.30
2023-03-15T09:01:53.464Z,1.40
2023-03-15T09:04:21.900Z,1.30
2023-03-15T09:06:49.556Z,1.25
2023-03-15T09:09:18.499Z,1.08
2023-03-15T09:11:46.076Z,1.20
2023-03-15T09:14:13.647Z,1.20
2023-03-15T09:16:41.340Z,1.38
2023-03-15T09:19:09.183Z,1.15
2023-03-15T09:21:36.736Z,1.15
2023-03-15T09:24:04.428Z,1.45
2023-03-15T09:26:33.395Z,1.20
2023-03-15T09:29:00.978Z,1.17
2023-03-15T09:31:28.611Z,1.10
2023-03-15T09:33:56.585Z,1.02
2023-03-15T09:36:24.142Z,1.00
2023-03-15T09:38:51.708Z,0.82
2023-03-15T09:41:21.858Z,1.08
2023-03-15T09:44:01.128Z,1.25
2023-03-15T09:46:30.880Z,1.02
2023-03-15T09:49:02.348Z,1.27
2023-03-15T09:51:35.335Z,0.90
2023-03-15T09:54:05.461Z,1.27
2023-03-15T09:56:35.671Z,1.00
2023-03-15T09:59:04.982Z,1.15
2023-03-15T10:01:33.904Z,0.93
2023-03-15T10:04:04.079Z,1.30
2023-03-15T10:06:36.564Z,1.00
2023-03-15T10:09:09.108Z,0.90
2023-03-15T10:11:40.899Z,1.00
2023-03-15T10:14:15.415Z,0.80
2023-03-15T10:16:43.701Z,0.85
2023-03-15T10:19:19.791Z,1.08
2023-03-15T10:21:51.262Z,1.00
2023-03-15T10:24:20.252Z,0.70
2023-03-15T10:26:48.077Z,0.82
2023-03-15T10:29:18.477Z,1.10
2023-03-15T10:31:47.590Z,1.17
2023-03-15T10:34:15.827Z,0.82
2023-03-15T10:36:49.256Z,0.90
2023-03-15T10:39:17.099Z,0.70
2023-03-15T10:41:45.564Z,0.70
2023-03-15T10:44:14.782Z,0.70
2023-03-15T10:46:44.243Z,0.85
2023-03-15T10:49:13.040Z,0.73
2023-03-15T10:51:41.560Z,0.77
2023-03-15T10:54:12.812Z,0.60
2023-03-15T10:56:45.205Z,0.88
2023-03-15T10:59:16.393Z,0.90
2023-03-15T11:01:48.152Z,0.90
2023-03-15T11:04:17.353Z,0.60
2023-03-15T11:06:47.039Z,0.60
2023-03-15T11:09:16.118Z,0.70
2023-03-15T11:11:52.238Z,0.80
2023-03-15T11:14:20.725Z,0.73
2023-03-15T11:16:51.084Z,0.70
2023-03-15T11:19:19.314Z,0.70
2023-03-15T11:21:48.102Z,0.90
2023-03-15T11:24:21.951Z,0.95
2023-03-15T11:26:53.297Z,0.70
2023-03-15T11:29:22.715Z,0.55
2023-03-15T11:31:52.165Z,0.60
2023-03-15T11:34:25.306Z,0.82
2023-03-15T11:37:07.578Z,0.77
2023-03-15T11:39:38.845Z,0.85
2023-03-15T11:42:11.140Z,1.08
2023-03-15T11:44:40.219Z,0.77
2023-03-15T11:47:13.488Z,0.80
2023-03-15T11:49:44.082Z,0.95
2023-03-15T11:52:11.778Z,0.77
2023-03-15T11:54:39.465Z,0.85
2023-03-15T11:57:08.112Z,1.02
2023-03-15T11:59:37.828Z,1.08
2023-03-15T12:02:27.406Z,1.00
2023-03-15T12:04:57.257Z,1.08
2023-03-15T12:07:39.220Z,1.13
2023-03-15T12:10:19.979Z,1.50
2023-03-15T12:12:48.368Z,1.13
2023-03-15T12:15:49.385Z,1.17
2023-03-15T12:18:31.819Z,1.05
2023-03-15T12:21:08.844Z,1.05
2023-03-15T12:23:39.288Z,1.00
2023-03-15T12:26:07.976Z,0.90
2023-03-15T12:28:36.684Z,1.08
2023-03-15T12:31:05.892Z,1.20
2023-03-15T12:33:35.401Z,1.10
2023-03-15T12:36:05.981Z,1.08
2023-03-15T12:38:37.123Z,0.90
2023-03-15T12:41:07.786Z,0.77
2023-03-15T12:43:43.280Z,1.15
2023-03-15T12:46:25.761Z,0.90
2023-03-15T12:49:06.355Z,0.75
2023-03-15T12:51:44.089Z,1.35
2023-03-15T12:54:15.075Z,0.82
2023-03-15T12:56:44.299Z,0.90
2023-03-15T12:59:16.210Z,0.90
2023-03-15T13:01:44.015Z,1.10
2023-03-15T13:04:12.514Z,0.70
2023-03-15T13:06:46.089Z,0.70
2023-03-15T13:09:21.216Z,0.73
2023-03-15T13:11:52.676Z,0.90
2023-03-15T13:14:27.730Z,0.73
2023-03-15T13:16:59.160Z,0.90
2023-03-15T13:19:27.601Z,0.80
2023-03-15T13:22:01.658Z,0.80
2023-03-15T13:24:34.367Z,0.90
2023-03-15T13:27:04.882Z,0.90
2023-03-15T13:29:33.441Z,0.80
2023-03-15T13:32:02.671Z,0.70
2023-03-15T13:34:32.039Z,0.80
2023-03-15T13:37:02.116Z,0.75
2023-03-15T13:39:30.794Z,0.80
2023-03-15T13:42:00.435Z,0.75
2023-03-15T13:44:28.974Z,0.65
2023-03-15T13:46:57.019Z,0.90
2023-03-15T13:49:25.227Z,0.82
2023-03-15T13:51:54.094Z,0.80
2023-03-15T13:54:25.246Z,0.70
2023-03-15T13:57:03.538Z,0.82
2023-03-15T13:59:33.677Z,0.88
2023-03-15T14:02:03.244Z,0.75
2023-03-15T14:04:32.539Z,0.80
2023-03-15T14:07:07.381Z,0.85
2023-03-15T14:09:34.965Z,0.90
2023-03-15T14:12:04.773Z,0.73
2023-03-15T14:14:33.151Z,0.70
2023-03-15T14:17:05.910Z,0.90
2023-03-15T14:19:35.287Z,0.70
2023-03-15T14:22:04.841Z,0.70
2023-03-15T14:24:34.955Z,0.98
2023-03-15T14:27:07.018Z,0.70
2023-03-15T14:29:35.493Z,0.68
2023-03-15T14:32:06.034Z,0.68
2023-03-15T14:34:35.599Z,0.60
2023-03-15T14:37:05.439Z,0.63
2023-03-15T14:39:38.401Z,0.50
2023-03-15T14:42:07.648Z,0.82
2023-03-15T14:44:35.200Z,0.90
2023-03-15T14:47:03.523Z,0.70
2023-03-15T14:49:31.092Z,0.82
2023-03-15T14:52:00.814Z,0.60
2023-03-15T14:54:29.525Z,0.70
2023-03-15T14:56:57.362Z,0.70
2023-03-15T14:59:26.304Z,0.50
2023-03-15T15:01:55.021Z,0.60
2023-03-15T15:04:22.749Z,0.70
2023-03-15T15:06:53.888Z,0.88
2023-03-15T15:09:23.705Z,0.50
2023-03-15T15:11:51.677Z,0.80
2023-03-15T15:14:19.632Z,0.60
2023-03-15T15:16:48.843Z,0.70
2023-03-15T15:19:16.748Z,0.50
2023-03-15T15:21:44.606Z,0.70
2023-03-15T15:24:14.039Z,0.52
2023-03-15T15:26:41.643Z,0.60
2023-03-15T15:29:13.511Z,0.60
2023-03-15T15:31:41.787Z,0.68
2023-03-15T15:34:11.403Z,0.98
2023-03-15T15:36:40.919Z,0.55
2023-03-15T15:39:15.713Z,0.50
2023-03-15T15:41:43.289Z,0.85
2023-03-15T15:44:14.824Z,0.50
2023-03-15T15:46:42.536Z,0.60
2023-03-15T15:49:11.573Z,0.60
2023-03-15T15:51:41.501Z,0.70
2023-03-15T15:54:13.449Z,0.80
2023-03-15T15:56:44.184Z,0.77
2023-03-15T15:59:13.729Z,0.30
2023-03-15T16:01:56.639Z,0.65
2023-03-15T16:04:29.110Z,0.55
2023-03-15T16:06:58.545Z,0.85
2023-03-15T16:09:27.077Z,0.50
2023-03-15T16:11:54.827Z,0.77
2023-03-15T16:14:22.476Z,0.65
2023-03-15T16:16:50.099Z,0.50
2023-03-15T16:19:17.694Z,0.60
2023-03-15T16:21:48.476Z,0.40
2023-03-15T16:24:18.061Z,0.63
2023-03-15T16:26:46.237Z,0.63
2023-03-15T16:29:16.234Z,0.50
2023-03-15T16:31:43.783Z,0.50
2023-03-15T16:34:12.222Z,0.50
2023-03-15T16:36:43.367Z,0.50
2023-03-15T16:39:13.345Z,0.50
2023-03-15T16:41:41.616Z,0.50
2023-03-15T16:44:11.616Z,0.60
2023-03-15T16:46:39.209Z,0.60
2023-03-15T16:49:06.832Z,0.60
2023-03-15T16:51:35.194Z,0.50
2023-03-15T16:54:15.186Z,0.60
2023-03-15T16:56:46.333Z,0.60
2023-03-15T16:59:14.939Z,0.60
2023-03-15T17:01:42.606Z,0.50
2023-03-15T17:04:10.282Z,0.57
2023-03-15T17:06:38.007Z,0.70
2023-03-15T17:09:09.339Z,0.50
2023-03-15T17:11:38.300Z,0.73
2023-03-15T17:14:08.469Z,0.60
2023-03-15T17:16:36.981Z,0.65
2023-03-15T17:19:04.586Z,0.60
2023-03-15T17:21:34.462Z,0.60
2023-03-15T17:24:02.099Z,0.60
2023-03-15T17:26:31.066Z,0.50
2023-03-15T17:28:58.651Z,0.68
2023-03-15T17:31:29.508Z,0.40
2023-03-15T17:33:57.541Z,0.60
2023-03-15T17:36:25.815Z,0.40
2023-03-15T17:38:54.549Z,0.47
2023-03-15T17:41:22.963Z,0.50
2023-03-15T17:43:51.396Z,0.40
2023-03-15T17:46:19.564Z,0.45
2023-03-15T17:48:48.619Z,0.40
2023-03-15T17:51:17.650Z,0.43
2023-03-15T17:53:45.201Z,0.35
2023-03-15T17:56:12.783Z,0.45
2023-03-15T17:58:40.483Z,0.43
2023-03-15T18:01:14.562Z,0.38
2023-03-15T18:03:43.682Z,0.50
2023-03-15T18:06:12.636Z,0.45
2023-03-15T18:08:40.328Z,0.40
2023-03-15T18:11:12.769Z,0.50
2023-03-15T18:13:40.519Z,0.40
2023-03-15T18:16:08.170Z,0.30
2023-03-15T18:18:35.790Z,0.40
2023-03-15T18:21:03.401Z,0.43
2023-03-15T18:23:32.354Z,0.47
2023-03-15T18:25:59.982Z,0.22
2023-03-15T18:28:27.539Z,0.45
2023-03-15T18:30:55.369Z,0.40
2023-03-15T18:33:22.968Z,0.30
2023-03-15T18:35:50.651Z,0.50
2023-03-15T18:38:18.338Z,0.40
2023-03-15T18:40:47.273Z,0.38
2023-03-15T18:43:15.311Z,0.32
2023-03-15T18:45:42.963Z,0.35
2023-03-15T18:48:10.658Z,0.63
2023-03-15T18:50:38.205Z,0.40
2023-03-15T18:53:06.484Z,0.77
2023-03-15T18:55:34.506Z,0.70
2023-03-15T18:58:03.504Z,0.52
2023-03-15T19:00:32.717Z,0.70
2023-03-15T19:03:01.033Z,0.60
2023-03-15T19:05:29.087Z,0.70
2023-03-15T19:07:56.686Z,0.50
2023-03-15T19:10:25.262Z,0.50
2023-03-15T19:12:53.182Z,0.65
2023-03-15T19:15:22.702Z,0.65
2023-03-15T19:17:51.952Z,0.50
2023-03-15T19:20:21.955Z,0.68
2023-03-15T19:22:49.592Z,0.45
2023-03-15T19:25:17.191Z,0.45
2023-03-15T19:27:45.182Z,0.45
2023-03-15T19:30:16.383Z,0.70
2023-03-15T19:32:46.317Z,0.82
2023-03-15T19:35:14.035Z,1.10
2023-03-15T19:37:44.430Z,1.23
2023-03-15T19:40:13.069Z,1.20
2023-03-15T19:42:40.696Z,1.17
2023-03-15T19:45:09.003Z,1.10
2023-03-15T19:47:36.676Z,1.08
2023-03-15T19:50:06.312Z,0.95
2023-03-15T19:52:34.104Z,1.38
2023-03-15T19:55:01.937Z,1.05
2023-03-15T19:57:29.568Z,1.30
2023-03-15T19:59:57.117Z,0.80
2023-03-15T20:02:24.959Z,0.80
2023-03-15T20:04:52.548Z,0.90
2023-03-15T20:07:21.500Z,1.45
2023-03-15T20:09:49.085Z,1.10
2023-03-15T20:12:16.672Z,0.88
2023-03-15T20:14:46.685Z,1.00
2023-03-15T20:17:15.134Z,1.00
2023-03-15T20:19:42.697Z,1.00
2023-03-15T20:22:10.276Z,0.90
2023-03-15T20:24:40.329Z,0.63
2023-03-15T20:27:07.911Z,1.10
2023-03-15T20:29:35.498Z,0.73
2023-03-15T20:32:03.126Z,0.85
2023-03-15T20:34:32.017Z,0.95
2023-03-15T20:36:59.620Z,0.47
2023-03-15T20:39:27.197Z,1.40
2023-03-15T20:41:56.152Z,1.65
2023-03-15T20:44:23.732Z,1.02
2023-03-15T20:46:54.897Z,1.38
2023-03-15T20:49:22.566Z,1.17
2023-03-15T20:51:50.143Z,0.90
2023-03-15T20:54:17.823Z,1.02
2023-03-15T20:56:45.422Z,0.73
2023-03-15T20:59:14.436Z,1.10
2023-03-15T21:01:42.040Z,1.27
2023-03-15T21:04:11.254Z,1.30
2023-03-15T21:06:38.886Z,1.17
2023-03-15T21:09:06.516Z,0.57
2023-03-15T21:11:34.134Z,1.17
2023-03-15T21:14:01.684Z,0.90
2023-03-15T21:16:33.218Z,1.17
2023-03-15T21:19:01.537Z,1.45
2023-03-15T21:21:29.720Z,1.25
2023-03-15T21:23:57.341Z,1.20
2023-03-15T21:26:24.934Z,0.98
2023-03-15T21:28:52.521Z,0.95
2023-03-15T21:31:20.230Z,1.13
2023-03-15T21:33:50.804Z,1.00
2023-03-15T21:36:18.697Z,1.10
2023-03-15T21:38:46.281Z,1.02
2023-03-15T21:41:13.901Z,0.90
2023-03-15T21:43:41.464Z,1.25
2023-03-15T21:46:09.971Z,1.08
2023-03-15T21:48:38.015Z,0.95
2023-03-15T21:51:07.606Z,1.10
2023-03-15T21:53:35.587Z,1.02
2023-03-15T21:56:03.811Z,1.08
2023-03-15T21:58:31.874Z,1.30
2023-03-15T22:00:59.961Z,0.90
2023-03-15T22:03:27.606Z,1.08
2023-03-15T22:05:55.207Z,1.02
2023-03-15T22:08:24.503Z,1.10
2023-03-15T22:10:53.301Z,1.00
2023-03-15T22:13:20.984Z,1.13
2023-03-15T22:15:48.534Z,1.13
2023-03-15T22:18:16.085Z,1.23
2023-03-15T22:20:43.634Z,1.15
2023-03-15T22:23:11.171Z,1.02
2023-03-15T22:25:40.362Z,0.95
2023-03-15T22:28:08.218Z,1.00
2023-03-15T22:30:35.936Z,1.33
2023-03-15T22:33:03.738Z,1.00
2023-03-15T22:35:31.404Z,1.55
2023-03-15T22:37:59.032Z,1.25
2023-03-15T22:40:28.011Z,1.00
2023-03-15T22:42:58.306Z,1.08
2023-03-15T22:45:26.638Z,1.30
2023-03-15T22:47:54.189Z,1.10
2023-03-15T22:50:22.183Z,1.10
2023-03-15T22:52:51.775Z,1.40
2023-03-15T22:55:20.660Z,1.40
2023-03-15T22:57:48.839Z,1.17
2023-03-15T23:00:20.932Z,1.30
2023-03-15T23:02:48.626Z,1.13
2023-03-15T23:05:16.356Z,1.35
2023-03-15T23:07:44.020Z,1.30
2023-03-15T23:10:12.615Z,1.42
2023-03-15T23:12:40.187Z,0.70
2023-03-15T23:15:08.605Z,1.00
2023-03-15T23:17:37.565Z,1.40
2023-03-15T23:20:07.421Z,1.15
2023-03-15T23:22:35.010Z,1.30
2023-03-15T23:25:02.965Z,0.85
2023-03-15T23:27:30.527Z,1.17
2023-03-15T23:29:58.087Z,1.63
2023-03-15T23:32:26.200Z,1.02
2023-03-15T23:34:55.319Z,1.25
2023-03-15T23:37:23.481Z,1.58
2023-03-15T23:39:52.824Z,1.60
2023-03-15T23:42:20.456Z,1.40
2023-03-15T23:44:48.064Z,1.10
2023-03-15T23:47:15.630Z,1.55
2023-03-15T23:49:43.558Z,1.27
2023-03-15T23:52:12.500Z,1.05
2023-03-15T23:54:41.301Z,1.48
2023-03-15T23:57:09.363Z,1.15
2023-03-15T23:59:37.319Z,0.80
